sensor_id;sensor_type;location;lat;lon;timestamp;pressure;altitude;pressure_sealevel;temperature;humidity
49585;BME280;35491;49.142;9.210;2022-10-26T04:37:41;99858.66;;;13.50;84.29
49585;BME280;35491;49.142;9.210;2022-10-26T04:38:47;99857.47;;;13.61;83.74
49585;BME280;35491;49.142;9.210;2022-10-26T04:39:49;99850.59;;;13.59;83.67
49585;BME280;35491;49.142;9.210;2022-10-26T04:40:53;99854.97;;;13.60;83.40
49585;BME280;35491;49.142;9.210;2022-10-26T04:41:54;99855.09;;;13.58;83.86
49585;BME280;35491;49.142;9.210;2022-10-26T04:42:59;99844.34;;;13.58;83.59
49585;BME280;35491;49.142;9.210;2022-10-26T04:44:00;99845.88;;;13.52;83.62
49585;BME280;35491;49.142;9.210;2022-10-26T04:45:05;99843.88;;;13.54;83.69
49585;BME280;35491;49.142;9.210;2022-10-26T04:46:07;99844.03;;;13.53;83.99
49585;BME280;35491;49.142;9.210;2022-10-26T04:47:13;99841.19;;;13.54;83.95
49585;BME280;35491;49.142;9.210;2022-10-26T04:48:15;99845.22;;;13.59;83.51
49585;BME280;35491;49.142;9.210;2022-10-26T04:49:19;99851.59;;;13.57;83.82
49585;BME280;35491;49.142;9.210;2022-10-26T04:50:20;99844.84;;;13.62;83.82
49585;BME280;35491;49.142;9.210;2022-10-26T04:51:25;99846.91;;;13.60;83.47
49585;BME280;35491;49.142;9.210;2022-10-26T04:52:27;99845.38;;;13.57;83.66
49585;BME280;35491;49.142;9.210;2022-10-26T04:53:33;99834.13;;;13.62;83.42
49585;BME280;35491;49.142;9.210;2022-10-26T04:54:38;99838.84;;;13.60;83.59
49585;BME280;35491;49.142;9.210;2022-10-26T04:55:40;99837.47;;;13.64;83.64
49585;BME280;35491;49.142;9.210;2022-10-26T04:56:44;99824.06;;;13.55;83.64
49585;BME280;35491;49.142;9.210;2022-10-26T04:57:45;99823.06;;;13.56;83.71
49585;BME280;35491;49.142;9.210;2022-10-26T04:58:52;99823.72;;;13.59;83.89
49585;BME280;35491;49.142;9.210;2022-10-26T04:59:56;99827.72;;;13.63;83.81
49585;BME280;35491;49.142;9.210;2022-10-26T05:01:00;99822.72;;;13.68;83.46
49585;BME280;35491;49.142;9.210;2022-10-26T05:02:04;99826.91;;;13.70;83.29
49585;BME280;35491;49.142;9.210;2022-10-26T05:03:06;99830.91;;;13.75;83.22
49585;BME280;35491;49.142;9.210;2022-10-26T05:04:10;99822.84;;;13.75;83.09
49585;BME280;35491;49.142;9.210;2022-10-26T05:05:12;99829.06;;;13.75;82.84
49585;BME280;35491;49.142;9.210;2022-10-26T05:06:16;99823.72;;;13.67;83.14
49585;BME280;35491;49.142;9.210;2022-10-26T05:07:18;99823.03;;;13.65;83.20
49585;BME280;35491;49.142;9.210;2022-10-26T05:08:22;99839.97;;;13.65;83.24
49585;BME280;35491;49.142;9.210;2022-10-26T05:09:26;99832.25;;;13.70;83.09
49585;BME280;35491;49.142;9.210;2022-10-26T05:10:30;99842.84;;;13.64;83.40
49585;BME280;35491;49.142;9.210;2022-10-26T05:11:32;99834.47;;;13.67;83.45
49585;BME280;35491;49.142;9.210;2022-10-26T05:12:36;99849.22;;;13.71;83.12
49585;BME280;35491;49.142;9.210;2022-10-26T05:13:37;99839.81;;;13.75;83.20
49585;BME280;35491;49.142;9.210;2022-10-26T05:14:41;99844.84;;;13.70;83.07
49585;BME280;35491;49.142;9.210;2022-10-26T05:15:43;99846.22;;;13.66;83.07
49585;BME280;35491;49.142;9.210;2022-10-26T05:16:49;99842.84;;;13.72;83.06
49585;BME280;35491;49.142;9.210;2022-10-26T05:17:56;99849.22;;;13.71;83.18
49585;BME280;35491;49.142;9.210;2022-10-26T05:18:58;99857.63;;;13.76;82.65
49585;BME280;35491;49.142;9.210;2022-10-26T05:20:03;99851.22;;;13.77;82.64
49585;BME280;35491;49.142;9.210;2022-10-26T05:21:06;99844.00;;;13.78;82.50
49585;BME280;35491;49.142;9.210;2022-10-26T05:22:12;99853.06;;;13.77;82.63
49585;BME280;35491;49.142;9.210;2022-10-26T05:23:13;99843.19;;;13.77;82.55
49585;BME280;35491;49.142;9.210;2022-10-26T05:24:18;99853.06;;;13.77;82.44
49585;BME280;35491;49.142;9.210;2022-10-26T05:25:23;99847.53;;;13.78;82.28
49585;BME280;35491;49.142;9.210;2022-10-26T05:26:27;99844.34;;;13.75;82.45
49585;BME280;35491;49.142;9.210;2022-10-26T05:27:29;99844.00;;;13.78;82.25
49585;BME280;35491;49.142;9.210;2022-10-26T05:28:33;99847.38;;;13.80;82.05
49585;BME280;35491;49.142;9.210;2022-10-26T05:29:38;99856.63;;;13.69;82.49
49585;BME280;35491;49.142;9.210;2022-10-26T05:30:39;99861.66;;;13.64;82.98
49585;BME280;35491;49.142;9.210;2022-10-26T05:31:44;99869.72;;;13.64;83.15
49585;BME280;35491;49.142;9.210;2022-10-26T05:32:52;99862.81;;;13.69;83.13
49585;BME280;35491;49.142;9.210;2022-10-26T05:33:54;99861.31;;;13.75;82.86
49585;BME280;35491;49.142;9.210;2022-10-26T05:34:58;99862.47;;;13.81;82.54
49585;BME280;35491;49.142;9.210;2022-10-26T05:36:00;99853.41;;;13.82;82.45
49585;BME280;35491;49.142;9.210;2022-10-26T05:37:04;99850.88;;;13.80;82.60
49585;BME280;35491;49.142;9.210;2022-10-26T05:38:06;99847.03;;;13.83;82.26
49585;BME280;35491;49.142;9.210;2022-10-26T05:39:11;99839.13;;;13.81;82.09
49585;BME280;35491;49.142;9.210;2022-10-26T05:40:12;99849.72;;;13.83;82.30
49585;BME280;35491;49.142;9.210;2022-10-26T05:41:20;99848.69;;;13.84;82.00
49585;BME280;35491;49.142;9.210;2022-10-26T05:42:24;99867.69;;;13.66;83.19
49585;BME280;35491;49.142;9.210;2022-10-26T05:43:26;99872.91;;;13.59;83.73
49585;BME280;35491;49.142;9.210;2022-10-26T05:44:30;99867.03;;;13.64;83.33
49585;BME280;35491;49.142;9.210;2022-10-26T05:45:32;99862.81;;;13.69;83.02
49585;BME280;35491;49.142;9.210;2022-10-26T05:46:36;99862.00;;;13.69;83.01
49585;BME280;35491;49.142;9.210;2022-10-26T05:47:37;99867.69;;;13.66;83.26
49585;BME280;35491;49.142;9.210;2022-10-26T05:48:42;99873.41;;;13.63;83.37
49585;BME280;35491;49.142;9.210;2022-10-26T05:49:43;99881.28;;;13.56;83.43
49585;BME280;35491;49.142;9.210;2022-10-26T05:50:48;99869.91;;;13.54;83.49
49585;BME280;35491;49.142;9.210;2022-10-26T05:51:50;99874.75;;;13.59;83.63
49585;BME280;35491;49.142;9.210;2022-10-26T05:52:54;99876.94;;;13.63;83.30
49585;BME280;35491;49.142;9.210;2022-10-26T05:53:56;99878.78;;;13.63;83.13
49585;BME280;35491;49.142;9.210;2022-10-26T05:55:00;99879.44;;;13.65;83.36
49585;BME280;35491;49.142;9.210;2022-10-26T05:56:15;99882.81;;;13.50;84.12
49585;BME280;35491;49.142;9.210;2022-10-26T05:57:24;99886.34;;;13.51;84.20
49585;BME280;35491;49.142;9.210;2022-10-26T05:58:26;99886.16;;;13.61;83.78
49585;BME280;35491;49.142;9.210;2022-10-26T05:59:31;99881.81;;;13.68;83.55
49585;BME280;35491;49.142;9.210;2022-10-26T06:00:36;99886.50;;;13.74;83.26
49585;BME280;35491;49.142;9.210;2022-10-26T06:01:51;99879.44;;;13.73;82.85
49585;BME280;35491;49.142;9.210;2022-10-26T06:03:10;99887.81;;;13.70;83.00
49585;BME280;35491;49.142;9.210;2022-10-26T06:04:28;99890.84;;;13.75;82.38
49585;BME280;35491;49.142;9.210;2022-10-26T06:05:36;99889.66;;;13.78;82.87
49585;BME280;35491;49.142;9.210;2022-10-26T06:06:42;99899.59;;;13.85;82.50
49585;BME280;35491;49.142;9.210;2022-10-26T06:07:48;99903.78;;;13.88;82.42
49585;BME280;35491;49.142;9.210;2022-10-26T06:08:50;99905.44;;;13.89;82.21
49585;BME280;35491;49.142;9.210;2022-10-26T06:09:54;99912.19;;;13.93;82.21
49585;BME280;35491;49.142;9.210;2022-10-26T06:10:59;99909.63;;;13.92;82.52
49585;BME280;35491;49.142;9.210;2022-10-26T06:12:03;99914.69;;;13.95;82.44
49585;BME280;35491;49.142;9.210;2022-10-26T06:13:11;99921.38;;;13.99;82.04
49585;BME280;35491;49.142;9.210;2022-10-26T06:14:16;99911.50;;;13.99;81.96
49585;BME280;35491;49.142;9.210;2022-10-26T06:15:19;99929.13;;;14.02;82.11
49585;BME280;35491;49.142;9.210;2022-10-26T06:16:32;99933.66;;;14.01;81.66
49585;BME280;35491;49.142;9.210;2022-10-26T06:17:43;99927.13;;;13.96;82.01
49585;BME280;35491;49.142;9.210;2022-10-26T06:19:02;99931.63;;;13.95;82.07
49585;BME280;35491;49.142;9.210;2022-10-26T06:20:19;99924.09;;;13.91;81.72
49585;BME280;35491;49.142;9.210;2022-10-26T06:21:37;99940.56;;;13.87;81.71
49585;BME280;35491;49.142;9.210;2022-10-26T06:22:53;99934.31;;;13.87;81.75
49585;BME280;35491;49.142;9.210;2022-10-26T06:24:07;99938.88;;;13.86;82.04
49585;BME280;35491;49.142;9.210;2022-10-26T06:25:22;99940.88;;;13.84;82.12
49585;BME280;35491;49.142;9.210;2022-10-26T06:26:34;99943.91;;;13.89;81.79
49585;BME280;35491;49.142;9.210;2022-10-26T06:27:45;99948.44;;;13.89;82.12
49585;BME280;35491;49.142;9.210;2022-10-26T06:28:56;99947.94;;;13.85;82.02
49585;BME280;35491;49.142;9.210;2022-10-26T06:30:06;99944.75;;;13.90;82.10
49585;BME280;35491;49.142;9.210;2022-10-26T06:31:10;99945.94;;;13.87;81.83
49585;BME280;35491;49.142;9.210;2022-10-26T06:32:16;99944.56;;;13.92;81.84
49585;BME280;35491;49.142;9.210;2022-10-26T06:33:18;99946.06;;;13.94;81.63
49585;BME280;35491;49.142;9.210;2022-10-26T06:34:26;99949.28;;;13.98;81.56
49585;BME280;35491;49.142;9.210;2022-10-26T06:35:34;99948.63;;;13.96;81.46
49585;BME280;35491;49.142;9.210;2022-10-26T06:36:40;99945.44;;;13.92;81.82
49585;BME280;35491;49.142;9.210;2022-10-26T06:37:46;99948.75;;;13.94;81.53
49585;BME280;35491;49.142;9.210;2022-10-26T06:38:49;99948.63;;;13.96;81.47
49585;BME280;35491;49.142;9.210;2022-10-26T06:39:55;99946.94;;;13.95;81.63
49585;BME280;35491;49.142;9.210;2022-10-26T06:40:58;99945.41;;;14.00;81.59
49585;BME280;35491;49.142;9.210;2022-10-26T06:42:03;99953.31;;;14.02;81.38
49585;BME280;35491;49.142;9.210;2022-10-26T06:43:10;99956.34;;;14.07;81.32
49585;BME280;35491;49.142;9.210;2022-10-26T06:44:20;99959.84;;;14.08;81.28
49585;BME280;35491;49.142;9.210;2022-10-26T06:45:23;99958.34;;;14.13;81.01
49585;BME280;35491;49.142;9.210;2022-10-26T06:46:34;99957.31;;;14.14;81.02
49585;BME280;35491;49.142;9.210;2022-10-26T06:47:45;99960.69;;;14.16;81.06
49585;BME280;35491;49.142;9.210;2022-10-26T06:48:56;99960.50;;;14.18;80.72
49585;BME280;35491;49.142;9.210;2022-10-26T06:50:05;99964.69;;;14.20;80.95
49585;BME280;35491;49.142;9.210;2022-10-26T06:51:16;99969.91;;;14.22;80.92
49585;BME280;35491;49.142;9.210;2022-10-26T06:52:22;99972.44;;;14.24;80.57
49585;BME280;35491;49.142;9.210;2022-10-26T06:53:34;99968.25;;;14.21;80.87
49585;BME280;35491;49.142;9.210;2022-10-26T06:54:46;99968.56;;;14.18;80.84
49585;BME280;35491;49.142;9.210;2022-10-26T06:55:50;99971.09;;;14.19;80.74
49585;BME280;35491;49.142;9.210;2022-10-26T06:56:55;99971.44;;;14.16;81.19
49585;BME280;35491;49.142;9.210;2022-10-26T06:57:56;99967.72;;;14.17;81.15
49585;BME280;35491;49.142;9.210;2022-10-26T06:59:07;99966.06;;;14.16;81.06
49585;BME280;35491;49.142;9.210;2022-10-26T07:00:19;99971.78;;;14.13;81.38
49585;BME280;35491;49.142;9.210;2022-10-26T07:01:25;99971.44;;;14.16;81.40
49585;BME280;35491;49.142;9.210;2022-10-26T07:02:29;99966.41;;;14.13;80.99
49585;BME280;35491;49.142;9.210;2022-10-26T07:03:31;99972.78;;;14.12;81.25
49585;BME280;35491;49.142;9.210;2022-10-26T07:04:36;99976.16;;;14.14;81.06
49585;BME280;35491;49.142;9.210;2022-10-26T07:05:40;99978.16;;;14.12;81.29
49585;BME280;35491;49.142;9.210;2022-10-26T07:06:45;99969.59;;;14.09;81.10
49585;BME280;35491;49.142;9.210;2022-10-26T07:07:47;99968.75;;;14.08;81.59
49585;BME280;35491;49.142;9.210;2022-10-26T07:08:51;99976.28;;;14.13;81.59
49585;BME280;35491;49.142;9.210;2022-10-26T07:09:56;99973.47;;;14.14;81.18
49585;BME280;35491;49.142;9.210;2022-10-26T07:11:01;99970.41;;;14.17;81.21
49585;BME280;35491;49.142;9.210;2022-10-26T07:12:05;99979.31;;;14.18;81.50
49585;BME280;35491;49.142;9.210;2022-10-26T07:13:10;99976.47;;;14.19;81.19
49585;BME280;35491;49.142;9.210;2022-10-26T07:14:12;99976.63;;;14.18;81.60
49585;BME280;35491;49.142;9.210;2022-10-26T07:15:18;99979.81;;;14.22;81.77
49585;BME280;35491;49.142;9.210;2022-10-26T07:16:20;99976.97;;;14.23;81.38
49585;BME280;35491;49.142;9.210;2022-10-26T07:17:25;99975.44;;;14.29;81.61
49585;BME280;35491;49.142;9.210;2022-10-26T07:18:30;99985.38;;;14.28;81.59
49585;BME280;35491;49.142;9.210;2022-10-26T07:19:32;99985.53;;;14.35;81.00
49585;BME280;35491;49.142;9.210;2022-10-26T07:20:38;99990.53;;;14.38;81.21
49585;BME280;35491;49.142;9.210;2022-10-26T07:21:40;99984.50;;;14.44;81.28
49585;BME280;35491;49.142;9.210;2022-10-26T07:22:51;99986.81;;;14.47;80.87
49585;BME280;35491;49.142;9.210;2022-10-26T07:23:56;99990.69;;;14.53;81.09
49585;BME280;35491;49.142;9.210;2022-10-26T07:25:01;99984.97;;;14.56;80.80
49585;BME280;35491;49.142;9.210;2022-10-26T07:26:02;99981.59;;;14.54;80.97
49585;BME280;35491;49.142;9.210;2022-10-26T07:27:06;99988.19;;;14.51;81.07
49585;BME280;35491;49.142;9.210;2022-10-26T07:28:09;99987.31;;;14.59;80.81
49585;BME280;35491;49.142;9.210;2022-10-26T07:29:14;99982.44;;;14.63;80.47
49585;BME280;35491;49.142;9.210;2022-10-26T07:30:22;99980.56;;;14.63;80.79
49585;BME280;35491;49.142;9.210;2022-10-26T07:31:26;99978.56;;;14.65;80.60
49585;BME280;35491;49.142;9.210;2022-10-26T07:32:28;99975.19;;;14.72;80.22
49585;BME280;35491;49.142;9.210;2022-10-26T07:33:33;99981.44;;;14.72;80.49
49585;BME280;35491;49.142;9.210;2022-10-26T07:34:37;99988.78;;;14.78;80.35
49585;BME280;35491;49.142;9.210;2022-10-26T07:35:41;99986.59;;;14.82;80.33
49585;BME280;35491;49.142;9.210;2022-10-26T07:36:43;99988.81;;;14.70;80.69
49585;BME280;35491;49.142;9.210;2022-10-26T07:37:47;99985.94;;;14.72;81.00
49585;BME280;35491;49.142;9.210;2022-10-26T07:38:50;99990.81;;;14.76;80.85
49585;BME280;35491;49.142;9.210;2022-10-26T07:39:55;99986.81;;;14.72;81.04
49585;BME280;35491;49.142;9.210;2022-10-26T07:40:57;99985.63;;;14.75;80.73
49585;BME280;35491;49.142;9.210;2022-10-26T07:42:01;99988.28;;;14.83;80.58
49585;BME280;35491;49.142;9.210;2022-10-26T07:43:05;99984.75;;;14.74;80.98
49585;BME280;35491;49.142;9.210;2022-10-26T07:44:07;99999.03;;;14.83;80.84
49585;BME280;35491;49.142;9.210;2022-10-26T07:45:11;99994.84;;;14.80;81.11
49585;BME280;35491;49.142;9.210;2022-10-26T07:46:15;99992.31;;;14.87;80.76
49585;BME280;35491;49.142;9.210;2022-10-26T07:47:20;100000.56;;;14.77;80.78
49585;BME280;35491;49.142;9.210;2022-10-26T07:48:21;99995.38;;;14.76;81.18
49585;BME280;35491;49.142;9.210;2022-10-26T07:49:26;99996.00;;;14.86;80.54
49585;BME280;35491;49.142;9.210;2022-10-26T07:50:27;99999.53;;;14.87;80.30
49585;BME280;35491;49.142;9.210;2022-10-26T07:51:32;99995.59;;;14.97;79.97
49585;BME280;35491;49.142;9.210;2022-10-26T07:52:36;99999.63;;;15.02;80.00
49585;BME280;35491;49.142;9.210;2022-10-26T07:53:41;100006.16;;;15.07;79.79
49585;BME280;35491;49.142;9.210;2022-10-26T07:54:43;100004.72;;;14.96;79.71
49585;BME280;35491;49.142;9.210;2022-10-26T07:55:52;100014.59;;;15.04;79.39
49585;BME280;35491;49.142;9.210;2022-10-26T07:56:56;100005.47;;;15.13;79.43
49585;BME280;35491;49.142;9.210;2022-10-26T07:57:58;100013.50;;;15.22;78.99
49585;BME280;35491;49.142;9.210;2022-10-26T07:59:03;100007.06;;;15.31;78.73
49585;BME280;35491;49.142;9.210;2022-10-26T08:00:07;100009.88;;;15.38;78.28
49585;BME280;35491;49.142;9.210;2022-10-26T08:01:16;100000.25;;;15.43;78.03
49585;BME280;35491;49.142;9.210;2022-10-26T08:02:20;100014.72;;;15.42;78.04
49585;BME280;35491;49.142;9.210;2022-10-26T08:03:22;100011.50;;;15.47;78.08
49585;BME280;35491;49.142;9.210;2022-10-26T08:04:26;100007.13;;;15.46;77.69
49585;BME280;35491;49.142;9.210;2022-10-26T08:05:28;100016.03;;;15.55;77.80
49585;BME280;35491;49.142;9.210;2022-10-26T08:06:32;100013.63;;;15.60;77.34
49585;BME280;35491;49.142;9.210;2022-10-26T08:07:39;100019.13;;;15.67;77.23
49585;BME280;35491;49.142;9.210;2022-10-26T08:08:43;100014.59;;;15.67;77.11
49585;BME280;35491;49.142;9.210;2022-10-26T08:09:47;100012.53;;;15.69;77.16
49585;BME280;35491;49.142;9.210;2022-10-26T08:10:51;99999.00;;;15.78;76.77
49585;BME280;35491;49.142;9.210;2022-10-26T08:11:53;100018.72;;;15.78;76.73
49585;BME280;35491;49.142;9.210;2022-10-26T08:12:57;100024.47;;;15.75;76.81
49585;BME280;35491;49.142;9.210;2022-10-26T08:13:59;100014.97;;;15.87;76.77
49585;BME280;35491;49.142;9.210;2022-10-26T08:15:04;100019.47;;;15.95;76.35
49585;BME280;35491;49.142;9.210;2022-10-26T08:16:06;100021.44;;;16.01;76.05
49585;BME280;35491;49.142;9.210;2022-10-26T08:17:13;100022.94;;;16.04;76.00
49585;BME280;35491;49.142;9.210;2022-10-26T08:18:15;100019.56;;;16.02;76.17
49585;BME280;35491;49.142;9.210;2022-10-26T08:19:19;100025.09;;;16.09;76.04
49585;BME280;35491;49.142;9.210;2022-10-26T08:20:21;100024.50;;;15.98;76.21
49585;BME280;35491;49.142;9.210;2022-10-26T08:21:25;100020.44;;;16.02;76.08
49585;BME280;35491;49.142;9.210;2022-10-26T08:22:27;100021.84;;;16.13;75.72
49585;BME280;35491;49.142;9.210;2022-10-26T08:23:32;100031.59;;;16.14;75.90
49585;BME280;35491;49.142;9.210;2022-10-26T08:24:34;100029.69;;;16.23;75.42
49585;BME280;35491;49.142;9.210;2022-10-26T08:25:38;100028.09;;;16.14;75.54
49585;BME280;35491;49.142;9.210;2022-10-26T22:26:44;100649.94;;;14.15;80.96
49585;BME280;35491;49.142;9.210;2022-10-26T22:27:48;100650.47;;;14.19;80.63
49585;BME280;35491;49.142;9.210;2022-10-26T22:28:51;100652.06;;;14.30;80.53
49585;BME280;35491;49.142;9.210;2022-10-26T22:29:56;100651.75;;;14.33;80.11
49585;BME280;35491;49.142;9.210;2022-10-26T22:31:00;100649.44;;;14.38;80.14
49585;BME280;35491;49.142;9.210;2022-10-26T22:32:05;100655.69;;;14.39;79.97
49585;BME280;35491;49.142;9.210;2022-10-26T22:33:06;100650.91;;;14.32;79.97
49585;BME280;35491;49.142;9.210;2022-10-26T22:34:13;100653.00;;;14.39;79.89
49585;BME280;35491;49.142;9.210;2022-10-26T22:35:18;100648.16;;;14.42;79.83
49585;BME280;35491;49.142;9.210;2022-10-26T22:36:21;100658.44;;;14.47;79.64
49585;BME280;35491;49.142;9.210;2022-10-26T22:37:25;100650.91;;;14.50;79.23
49585;BME280;35491;49.142;9.210;2022-10-26T22:38:27;100653.41;;;14.52;79.11
49585;BME280;35491;49.142;9.210;2022-10-26T22:39:31;100650.59;;;14.54;79.42
49585;BME280;35491;49.142;9.210;2022-10-26T22:40:36;100649.72;;;14.53;78.94
49585;BME280;35491;49.142;9.210;2022-10-26T22:41:37;100652.59;;;14.51;79.22
49585;BME280;35491;49.142;9.210;2022-10-26T22:42:45;100651.59;;;14.53;78.88
49585;BME280;35491;49.142;9.210;2022-10-26T22:43:46;100657.50;;;14.56;79.15
49585;BME280;35491;49.142;9.210;2022-10-26T22:44:52;100654.97;;;14.55;79.32
49585;BME280;35491;49.142;9.210;2022-10-26T22:46:00;100656.28;;;14.50;79.06
49585;BME280;35491;49.142;9.210;2022-10-26T22:47:04;100641.13;;;14.49;79.02
49585;BME280;35491;49.142;9.210;2022-10-26T22:48:06;100650.59;;;14.54;79.05
49585;BME280;35491;49.142;9.210;2022-10-26T22:49:10;100653.28;;;14.54;79.27
49585;BME280;35491;49.142;9.210;2022-10-26T22:50:14;100646.75;;;14.56;78.84
49585;BME280;35491;49.142;9.210;2022-10-26T22:51:17;100656.16;;;14.60;78.89
49585;BME280;35491;49.142;9.210;2022-10-26T22:52:22;100651.44;;;14.54;78.78
49585;BME280;35491;49.142;9.210;2022-10-26T22:53:24;100650.31;;;14.39;79.25
49585;BME280;35491;49.142;9.210;2022-10-26T22:54:28;100652.69;;;14.24;80.06
49585;BME280;35491;49.142;9.210;2022-10-26T22:55:29;100653.06;;;14.11;80.42
49585;BME280;35491;49.142;9.210;2022-10-26T22:56:34;100655.69;;;14.02;80.61
49585;BME280;35491;49.142;9.210;2022-10-26T22:57:38;100652.44;;;13.99;80.73
49585;BME280;35491;49.142;9.210;2022-10-26T22:58:43;100660.59;;;14.07;80.47
49585;BME280;35491;49.142;9.210;2022-10-26T22:59:47;100653.63;;;14.14;79.99
49585;BME280;35491;49.142;9.210;2022-10-26T23:00:51;100655.69;;;14.20;80.03
49585;BME280;35491;49.142;9.210;2022-10-26T23:01:52;100657.06;;;14.25;79.50
49585;BME280;35491;49.142;9.210;2022-10-26T23:02:57;100650.84;;;14.24;79.68
49585;BME280;35491;49.142;9.210;2022-10-26T23:03:59;100651.16;;;14.21;79.42
49585;BME280;35491;49.142;9.210;2022-10-26T23:05:04;100647.06;;;14.17;79.76
49585;BME280;35491;49.142;9.210;2022-10-26T23:06:07;100647.78;;;14.19;79.48
49585;BME280;35491;49.142;9.210;2022-10-26T23:07:12;100646.53;;;14.13;79.67
49585;BME280;35491;49.142;9.210;2022-10-26T23:08:13;100644.63;;;14.24;79.36
49585;BME280;35491;49.142;9.210;2022-10-26T23:09:17;100641.47;;;14.28;79.10
49585;BME280;35491;49.142;9.210;2022-10-26T23:10:22;100649.00;;;14.25;79.21
49585;BME280;35491;49.142;9.210;2022-10-26T23:11:25;100649.84;;;14.07;79.72
49585;BME280;35491;49.142;9.210;2022-10-26T23:12:30;100651.69;;;13.88;80.71
49585;BME280;35491;49.142;9.210;2022-10-26T23:13:31;100651.44;;;13.82;81.17
49585;BME280;35491;49.142;9.210;2022-10-26T23:14:38;100655.19;;;13.89;80.62
49585;BME280;35491;49.142;9.210;2022-10-26T23:15:39;100656.44;;;13.95;80.71
49585;BME280;35491;49.142;9.210;2022-10-26T23:16:43;100654.13;;;14.00;80.42
49585;BME280;35491;49.142;9.210;2022-10-26T23:17:45;100657.81;;;13.99;79.85
49585;BME280;35491;49.142;9.210;2022-10-26T23:18:49;100652.06;;;13.94;80.32
49585;BME280;35491;49.142;9.210;2022-10-26T23:19:59;100656.19;;;13.88;80.43
49585;BME280;35491;49.142;9.210;2022-10-26T23:21:04;100662.94;;;13.74;80.92
49585;BME280;35491;49.142;9.210;2022-10-26T23:22:06;100661.84;;;13.67;81.26
49585;BME280;35491;49.142;9.210;2022-10-26T23:23:10;100651.81;;;13.69;81.24
49585;BME280;35491;49.142;9.210;2022-10-26T23:24:12;100664.22;;;13.70;81.42
49585;BME280;35491;49.142;9.210;2022-10-26T23:25:16;100656.41;;;13.77;81.14
49585;BME280;35491;49.142;9.210;2022-10-26T23:26:18;100654.56;;;13.77;80.69
49585;BME280;35491;49.142;9.210;2022-10-26T23:27:24;100657.25;;;13.77;80.63
49585;BME280;35491;49.142;9.210;2022-10-26T23:28:25;100654.25;;;13.80;80.57
49585;BME280;35491;49.142;9.210;2022-10-26T23:29:29;100661.06;;;13.75;80.95
49585;BME280;35491;49.142;9.210;2022-10-26T23:30:33;100659.59;;;13.62;81.22
49585;BME280;35491;49.142;9.210;2022-10-26T23:31:37;100656.22;;;13.60;81.18
49585;BME280;35491;49.142;9.210;2022-10-26T23:32:39;100662.31;;;13.52;81.78
49585;BME280;35491;49.142;9.210;2022-10-26T23:33:43;100659.88;;;13.41;82.24
49585;BME280;35491;49.142;9.210;2022-10-26T23:34:45;100663.78;;;13.37;82.41
49585;BME280;35491;49.142;9.210;2022-10-26T23:35:49;100660.84;;;13.40;82.42
49585;BME280;35491;49.142;9.210;2022-10-26T23:36:50;100660.28;;;13.36;82.38
49585;BME280;35491;49.142;9.210;2022-10-26T23:37:56;100673.44;;;13.30;82.90
49585;BME280;35491;49.142;9.210;2022-10-26T23:38:57;100670.31;;;13.34;82.66
49585;BME280;35491;49.142;9.210;2022-10-26T23:40:02;100672.03;;;13.25;82.66
49585;BME280;35491;49.142;9.210;2022-10-26T23:41:03;100668.34;;;13.26;82.69
49585;BME280;35491;49.142;9.210;2022-10-26T23:42:08;100675.69;;;13.24;83.04
49585;BME280;35491;49.142;9.210;2022-10-26T23:43:09;100668.63;;;13.23;82.74
49585;BME280;35491;49.142;9.210;2022-10-26T23:44:13;100681.94;;;13.25;82.59
49585;BME280;35491;49.142;9.210;2022-10-26T23:45:15;100681.38;;;13.21;82.57
49585;BME280;35491;49.142;9.210;2022-10-26T23:46:21;100668.91;;;13.30;82.50
49585;BME280;35491;49.142;9.210;2022-10-26T23:47:23;100676.97;;;13.30;82.26
49585;BME280;35491;49.142;9.210;2022-10-26T23:48:27;100672.84;;;13.36;82.22
49585;BME280;35491;49.142;9.210;2022-10-26T23:49:29;100673.41;;;13.39;81.69
49585;BME280;35491;49.142;9.210;2022-10-26T23:50:33;100676.22;;;13.38;81.75
49585;BME280;35491;49.142;9.210;2022-10-26T23:51:34;100670.31;;;13.34;82.06
49585;BME280;35491;49.142;9.210;2022-10-26T23:52:38;100678.22;;;13.36;81.78
49585;BME280;35491;49.142;9.210;2022-10-26T23:53:40;100672.13;;;13.34;82.14
49585;BME280;35491;49.142;9.210;2022-10-26T23:54:44;100670.75;;;13.30;82.03
49585;BME280;35491;49.142;9.210;2022-10-26T23:55:46;100665.81;;;13.25;82.49
49585;BME280;35491;49.142;9.210;2022-10-26T23:56:50;100671.75;;;13.29;82.28
49585;BME280;35491;49.142;9.210;2022-10-26T23:57:51;100672.13;;;13.34;82.04
49585;BME280;35491;49.142;9.210;2022-10-26T23:58:55;100670.44;;;13.33;81.80
49585;BME280;35491;49.142;9.210;2022-10-26T23:59:57;100673.13;;;13.33;81.96
